WAOO/BDJ METAR and TAF weather

Enter ICAO airport designator
Station Type Date Time Source
WAOO METAR 2019/12/08 10:30 UTC NOAA

WAOO 081030Z 13005KT 9999 FEW018 30/24 Q1008 NOSIG


Station Type Date Time Source
WAOO Decoded METAR 2019/12/08 10:30 UTC NOAA

Station name not available
Dec 08, 2019 - 05:30 AM EST / 2019.12.08 1030 UTC
Wind: from the SE (130 degrees) at 6 MPH (5 KT):0
Visibility: greater than 7 mile(s):0
Sky conditions: mostly clear
Temperature: 86 F (30 C)
Heat index: 95.0 F (35.0 C):1
Dew Point: 75 F (24 C)
Relative Humidity: 70%
Pressure (altimeter): 29.77 in. Hg (1008 hPa)
ob: WAOO 081030Z 13005KT 9999 FEW018 30/24 Q1008 NOSIG
cycle: 10

Station Type Date Time Source
WAOO TAF 2019/12/08 12:10 UTC NOAA

TAF WAOO 081100Z 0812/0912 06005KT 9999 SCT018
TEMPO 0821/0824 4000 BR

Example: see airport list